Udo Maru — JM6522 — position and weather

sailwx.info

Track history (hours):
 
Tides and Currents Weather Stations Pressure Air Temp Water Temp Dewpoint Dewpoint Depression Visibility Wind Speed Wind Dir Waves Ship Positions

Udo Maru

Last reported at 2015-Feb-25 14:22 UTC. Time now 2015-Mar-01 03:05 UTC.
Position N 34°37' E 134°53'.

Length 87 m; draft 4.9 m.

Type: Ship (hazmat cat A). MMSI: 431600499.

Date/timePositionNaut miles runAvg speedWind from/ knotsBaromVisibWave heightAir tempDewpointWater temp
2015-Feb-25 14:22N 34°37' E 134°53'911.2
2015-Feb-25 13:33N 34°36' E 135°04'1010.2
2015-Feb-25 12:33N 34°25' E 135°03'1110.7
2015-Feb-25 11:33N 34°15' E 134°59'10 9.8
2015-Feb-25 10:33N 34°05' E 134°59'245 8.7
2015-Feb-24 06:33N 35°19' E 139°43'6 6.3
2015-Feb-24 05:33N 35°23' E 139°49'3 2.7
2015-Feb-24 04:31N 35°22' E 139°51'0 0.0
2015-Feb-24 03:21N 35°22' E 139°51'0 0.0
2015-Feb-24 02:31N 35°22' E 139°51'0 0.0
2015-Feb-24 01:32N 35°22' E 139°51'0 0.0
2015-Feb-24 00:29N 35°22' E 139°51'0 0.0
2015-Feb-23 23:27N 35°22' E 139°51'0 0.0
2015-Feb-23 22:33N 35°22' E 139°51'0 0.4
2015-Feb-23 21:33N 35°22' E 139°51'1 1.4
2015-Feb-23 20:33N 35°22' E 139°49'0 0.1
2015-Feb-23 19:33N 35°22' E 139°49'0 0.0
2015-Feb-23 18:33N 35°22' E 139°49'0 0.1
2015-Feb-23 17:33N 35°22' E 139°49'0 0.0
2015-Feb-23 16:33N 35°22' E 139°49'0 0.0
2015-Feb-23 15:34N 35°22' E 139°49'0 0.0
2015-Feb-23 14:33N 35°22' E 139°49'0 0.0
2015-Feb-23 13:33N 35°22' E 139°49'0 0.0
2015-Feb-23 12:33N 35°22' E 139°49'0 0.0
2015-Feb-23 11:33N 35°22' E 139°49'0 0.0
2015-Feb-23 10:33N 35°22' E 139°49'0 0.0
2015-Feb-23 09:33N 35°22' E 139°49'0 0.2
2015-Feb-23 08:33N 35°22' E 139°49'0 0.0
2015-Feb-23 07:34N 35°22' E 139°49'2 1.8
2015-Feb-23 06:32N 35°24' E 139°50'1010.5
2015-Feb-23 05:33N 35°34' E 139°51'1 0.2
2015-Feb-22 22:33N 35°36' E 139°50'2 2.2
2015-Feb-22 21:31N 35°34' E 139°52'0 0.0
2015-Feb-22 20:32N 35°34' E 139°52'0 0.0
2015-Feb-22 19:28N 35°34' E 139°52'0 0.0
2015-Feb-22 18:32N 35°34' E 139°52'0 0.0
2015-Feb-22 17:29N 35°34' E 139°52'0 0.0
2015-Feb-22 16:29N 35°34' E 139°52'0 0.0
2015-Feb-22 15:33N 35°34' E 139°52'0 0.1
2015-Feb-22 14:27N 35°34' E 139°52'0 0.0
2015-Feb-22 13:33N 35°34' E 139°52'0 0.0
2015-Feb-22 12:33N 35°34' E 139°52'0 0.0
2015-Feb-22 11:29N 35°34' E 139°52'0 0.1
2015-Feb-22 10:33N 35°34' E 139°52'4 4.4
2015-Feb-22 09:33N 35°30' E 139°52'9 9.5
2015-Feb-22 08:33N 35°27' E 139°41'2 2.4
2015-Feb-22 07:34N 35°29' E 139°39'0 0.0
2015-Feb-22 06:31N 35°29' E 139°39'0 0.0
2015-Feb-22 05:34N 35°29' E 139°39'0 0.0
2015-Feb-22 04:34N 35°29' E 139°39'4 4.5
2015-Feb-22 03:33N 35°26' E 139°43'3 2.8
2015-Feb-22 02:33N 35°23' E 139°43'5 4.8
2015-Feb-22 01:33N 35°18' E 139°45'12 9.9
2015-Feb-22 00:18N 35°06' E 139°45'243 9.5
2015-Feb-20 22:33N 34°02' E 134°59'1111.4
2015-Feb-20 21:33N 34°14' E 134°59'1111.1
2015-Feb-20 20:33N 34°24' E 135°01'1111.1
2015-Feb-20 19:33N 34°35' E 135°03'  
Track history (hours):
 
Tides and Currents Weather Stations Pressure Air Temp Water Temp Dewpoint Dewpoint Depression Visibility Wind Speed Wind Dir Waves Ship Positions

Udo Maru

Last reported at 2015-Feb-25 14:22 UTC. Time now 2015-Mar-01 03:05 UTC.
Position N 34°37' E 134°53'.

Length 87 m; draft 4.9 m.

Type: Ship (hazmat cat A). MMSI: 431600499.

Date/timePositionNaut miles runAvg speedWind from/ knotsBaromVisibWave heightAir tempDewpointWater temp
2015-Feb-25 14:22N 34°37' E 134°53'911.2
2015-Feb-25 13:33N 34°36' E 135°04'1010.2
2015-Feb-25 12:33N 34°25' E 135°03'1110.7
2015-Feb-25 11:33N 34°15' E 134°59'10 9.8
2015-Feb-25 10:33N 34°05' E 134°59'245 8.7
2015-Feb-24 06:33N 35°19' E 139°43'6 6.3
2015-Feb-24 05:33N 35°23' E 139°49'3 2.7
2015-Feb-24 04:31N 35°22' E 139°51'0 0.0
2015-Feb-24 03:21N 35°22' E 139°51'0 0.0
2015-Feb-24 02:31N 35°22' E 139°51'0 0.0
2015-Feb-24 01:32N 35°22' E 139°51'0 0.0
2015-Feb-24 00:29N 35°22' E 139°51'0 0.0
2015-Feb-23 23:27N 35°22' E 139°51'0 0.0
2015-Feb-23 22:33N 35°22' E 139°51'0 0.4
2015-Feb-23 21:33N 35°22' E 139°51'1 1.4
2015-Feb-23 20:33N 35°22' E 139°49'0 0.1
2015-Feb-23 19:33N 35°22' E 139°49'0 0.0
2015-Feb-23 18:33N 35°22' E 139°49'0 0.1
2015-Feb-23 17:33N 35°22' E 139°49'0 0.0
2015-Feb-23 16:33N 35°22' E 139°49'0 0.0
2015-Feb-23 15:34N 35°22' E 139°49'0 0.0
2015-Feb-23 14:33N 35°22' E 139°49'0 0.0
2015-Feb-23 13:33N 35°22' E 139°49'0 0.0
2015-Feb-23 12:33N 35°22' E 139°49'0 0.0
2015-Feb-23 11:33N 35°22' E 139°49'0 0.0
2015-Feb-23 10:33N 35°22' E 139°49'0 0.0
2015-Feb-23 09:33N 35°22' E 139°49'0 0.2
2015-Feb-23 08:33N 35°22' E 139°49'0 0.0
2015-Feb-23 07:34N 35°22' E 139°49'2 1.8
2015-Feb-23 06:32N 35°24' E 139°50'1010.5
2015-Feb-23 05:33N 35°34' E 139°51'1 0.2
2015-Feb-22 22:33N 35°36' E 139°50'2 2.2
2015-Feb-22 21:31N 35°34' E 139°52'0 0.0
2015-Feb-22 20:32N 35°34' E 139°52'0 0.0
2015-Feb-22 19:28N 35°34' E 139°52'0 0.0
2015-Feb-22 18:32N 35°34' E 139°52'0 0.0
2015-Feb-22 17:29N 35°34' E 139°52'0 0.0
2015-Feb-22 16:29N 35°34' E 139°52'0 0.0
2015-Feb-22 15:33N 35°34' E 139°52'0 0.1
2015-Feb-22 14:27N 35°34' E 139°52'0 0.0
2015-Feb-22 13:33N 35°34' E 139°52'0 0.0
2015-Feb-22 12:33N 35°34' E 139°52'0 0.0
2015-Feb-22 11:29N 35°34' E 139°52'0 0.1
2015-Feb-22 10:33N 35°34' E 139°52'4 4.4
2015-Feb-22 09:33N 35°30' E 139°52'9 9.5
2015-Feb-22 08:33N 35°27' E 139°41'2 2.4
2015-Feb-22 07:34N 35°29' E 139°39'0 0.0
2015-Feb-22 06:31N 35°29' E 139°39'0 0.0
2015-Feb-22 05:34N 35°29' E 139°39'0 0.0
2015-Feb-22 04:34N 35°29' E 139°39'4 4.5
2015-Feb-22 03:33N 35°26' E 139°43'3 2.8
2015-Feb-22 02:33N 35°23' E 139°43'5 4.8
2015-Feb-22 01:33N 35°18' E 139°45'12 9.9
2015-Feb-22 00:18N 35°06' E 139°45'243 9.5
2015-Feb-20 22:33N 34°02' E 134°59'1111.4
2015-Feb-20 21:33N 34°14' E 134°59'1111.1
2015-Feb-20 20:33N 34°24' E 135°01'1111.1
2015-Feb-20 19:33N 34°35' E 135°03'  

Dump ship's entire track history